Euskara    
Meteorología y climatología de Navarra
Datos de la estación - Meteo Navarra

Estación de Aralar GN

Altitud 1344 m.


Datos desde el 22/11/2020 hasta el 23/11/2020 en horario solar
Los datos son PROVISIONALES

Anterior Página 1 de 1 Siguiente Descargar: Formato para Excel 2000 o superior   Formato csv   Formato para OpenOffice Calc
Fecha Temperatura Humedad relativa Radiación global Insolación Precipitación Vel. viento 10 m Vel. viento 10 m Dir. viento 10 m
°C % W/m² s l/m² m/s km/h °
22/11/2020 0:00 8.0 19 0.0 0 0.0 6.5 23.3 178
22/11/2020 0:10 7.6 22 0.0 0 0.0 6.4 23.2 176
22/11/2020 0:20 7.0 23 0.0 0 0.0 6.7 24.3 177
22/11/2020 0:30 7.0 22 0.0 0 0.0 7.3 26.4 178
22/11/2020 0:40 7.3 21 0.0 0 0.0 7.4 26.6 181
22/11/2020 0:50 7.8 20 0.0 0 0.0 7.7 27.7 185
22/11/2020 1:00 8.2 18 0.0 0 0.0 7.4 26.6 181
22/11/2020 1:10 8.2 19 0.0 0 0.0 7.2 25.7 180
22/11/2020 1:20 7.7 21 0.0 0 0.0 6.8 24.6 178
22/11/2020 1:30 7.8 21 0.0 0 0.0 6.6 23.7 180
22/11/2020 1:40 7.6 24 0.0 0 0.0 6.6 23.9 182
22/11/2020 1:50 7.5 24 0.0 0 0.0 7.0 25.0 181
22/11/2020 2:00 7.2 27 0.0 0 0.0 6.4 23.0 182
22/11/2020 2:10 6.9 27 0.0 0 0.0 6.7 24.0 180
22/11/2020 2:20 7.3 26 0.0 0 0.0 6.7 24.0 180
22/11/2020 2:30 7.3 26 0.0 0 0.0 6.6 23.7 181
22/11/2020 2:40 6.7 29 0.0 0 0.0 6.7 24.2 181
22/11/2020 2:50 7.0 29 0.0 0 0.0 6.5 23.3 184
22/11/2020 3:00 7.0 28 0.0 0 0.0 6.1 22.0 188
22/11/2020 3:10 7.9 25 0.0 0 0.0 5.2 18.9 203
22/11/2020 3:20 9.0 21 0.0 0 0.0 4.5 16.3 210
22/11/2020 3:30 8.8 21 0.0 0 0.0 5.3 19.0 201
22/11/2020 3:40 8.8 22 0.0 0 0.0 4.7 16.9 197
22/11/2020 3:50 9.3 19 0.0 0 0.0 4.5 16.1 205
22/11/2020 4:00 10.1 16 0.0 0 0.0 3.6 13.1 209
22/11/2020 4:10 10.5 14 0.0 0 0.0 2.3 8.3 231
22/11/2020 4:20 11.1 13 0.0 0 0.0 1.8 6.6 241
22/11/2020 4:30 11.2 12 0.0 0 0.0 1.1 4.0 251
22/11/2020 4:40 11.4 12 0.0 0 0.0 0.4 1.5 288
22/11/2020 4:50 12.2 15 0.0 0 0.0 0.7 2.4 329
22/11/2020 5:00 11.7 13 0.0 0 0.0 0.1 0.4 322
22/11/2020 5:10 11.8 14 0.0 0 0.0 0.4 1.5 312
22/11/2020 5:20 11.6 13 0.0 0 0.0 0.5 1.9 277
22/11/2020 5:30 11.4 13 0.0 0 0.0 1.3 4.6 251
22/11/2020 5:40 11.0 13 0.0 0 0.0 1.2 4.2 256
22/11/2020 5:50 10.9 14 0.0 0 0.0 2.3 8.2 245
22/11/2020 6:00 10.7 15 0.0 0 0.0 2.6 9.5 243
22/11/2020 6:10 10.4 17 0.0 0 0.0 2.3 8.3 250
22/11/2020 6:20 9.8 19 0.0 0 0.0 1.5 5.5 263
22/11/2020 6:30 9.6 19 0.0 0 0.0 1.2 4.2 278
22/11/2020 6:40 9.6 18 0.0 0 0.0 1.2 4.4 274
22/11/2020 6:50 10.2 16 0.0 0 0.0 1.3 4.8 291
22/11/2020 7:00 11.1 16 0.0 0 0.0 1.5 5.4 298
22/11/2020 7:10 11.0 16 0.0 0 0.0 2.0 7.3 306
22/11/2020 7:20 9.9 20 1.1 0 0.0 1.7 6.0 278
22/11/2020 7:30 8.9 25 26.3 166 0.0 3.7 13.5 253
22/11/2020 7:40 8.8 29 46.7 600 0.0 4.2 15.2 257
22/11/2020 7:50 8.3 32 70.1 600 0.0 4.8 17.1 259
22/11/2020 8:00 8.2 33 95.9 600 0.0 4.3 15.4 258
22/11/2020 8:10 7.8 34 122.2 600 0.0 3.3 12.0 256
22/11/2020 8:20 8.0 34 148.9 600 0.0 2.1 7.6 244
22/11/2020 8:30 8.0 34 174.6 600 0.0 1.6 5.6 234
22/11/2020 8:40 8.5 33 201.3 600 0.0 0.5 1.7 237
22/11/2020 8:50 9.7 27 226.6 600 0.0 0.3 1.1 39
22/11/2020 9:00 11.5 21 250.9 600 0.0 1.0 3.5 38
22/11/2020 9:10 11.5 23 273.4 600 0.0 0.7 2.5 16
22/11/2020 9:20 10.6 23 296.8 600 0.0 1.3 4.6 350
22/11/2020 9:30 10.7 22 319.4 600 0.0 1.3 4.6 337
22/11/2020 9:40 10.5 22 340.9 600 0.0 1.4 5.0 347
22/11/2020 9:50 10.8 22 361.6 600 0.0 1.7 6.2 10
22/11/2020 10:00 10.2 25 379.6 600 0.0 1.7 6.0 340
22/11/2020 10:10 9.7 27 398.0 600 0.0 1.9 7.0 335
22/11/2020 10:20 9.7 28 414.3 600 0.0 2.1 7.6 337
22/11/2020 10:30 9.6 29 428.6 600 0.0 2.3 8.3 338
22/11/2020 10:40 9.7 28 441.6 600 0.0 2.1 7.6 336
22/11/2020 10:50 9.8 29 451.9 600 0.0 2.0 7.3 338
22/11/2020 11:00 9.9 31 461.2 600 0.0 2.7 9.7 355
22/11/2020 11:10 9.6 29 468.9 600 0.0 2.4 8.5 347
22/11/2020 11:20 9.7 29 475.8 600 0.0 1.9 6.7 340
22/11/2020 11:30 9.5 30 480.6 600 0.0 2.2 8.0 341
22/11/2020 11:40 9.7 34 484.1 600 0.0 2.1 7.5 2
22/11/2020 11:50 9.6 37 485.1 600 0.0 2.4 8.5 8
22/11/2020 12:00 9.6 34 485.3 600 0.0 2.4 8.6 349
22/11/2020 12:10 9.4 32 485.1 600 0.0 2.4 8.7 353
22/11/2020 12:20 9.6 30 483.3 600 0.0 2.4 8.7 346
22/11/2020 12:30 9.4 29 479.2 600 0.0 1.7 6.2 347
22/11/2020 12:40 9.7 28 472.8 600 0.0 0.6 2.2 353
22/11/2020 12:50 9.6 29 457.0 600 0.0 0.9 3.1 352
22/11/2020 13:00 9.3 29 444.3 600 0.0 0.4 1.5 338
22/11/2020 13:10 9.7 28 435.2 600 0.0 0.0 0.1 216
22/11/2020 13:20 10.5 27 425.5 600 0.0 0.0 0.1 245
22/11/2020 13:30 10.9 24 416.9 600 0.0 0.4 1.4 305
22/11/2020 13:40 10.9 26 399.5 600 0.0 0.7 2.3 300
22/11/2020 13:50 10.6 34 383.3 600 0.0 0.5 1.8 210
22/11/2020 14:00 11.4 37 369.5 600 0.0 0.7 2.5 162
22/11/2020 14:10 11.2 42 347.7 600 0.0 0.9 3.3 164
22/11/2020 14:20 11.8 45 321.3 600 0.0 1.0 3.7 209
22/11/2020 14:30 11.5 43 298.0 600 0.0 0.3 1.1 233
22/11/2020 14:40 11.2 47 278.1 600 0.0 1.0 3.5 209
22/11/2020 14:50 11.7 45 262.2 600 0.0 1.0 3.5 205
22/11/2020 15:00 10.6 45 236.6 600 0.0 0.3 1.0 256
22/11/2020 15:10 9.7 44 210.3 600 0.0 0.4 1.5 263
22/11/2020 15:20 9.8 45 184.7 600 0.0 0.7 2.3 269
22/11/2020 15:30 9.5 44 157.7 600 0.0 0.4 1.6 264
22/11/2020 15:40 9.2 41 131.0 600 0.0 0.9 3.2 286
22/11/2020 15:50 8.8 40 105.0 600 0.0 0.8 2.8 297
22/11/2020 16:00 8.7 37 79.5 600 0.0 2.3 8.1 305
22/11/2020 16:10 8.6 35 52.7 600 0.0 3.0 10.8 311
22/11/2020 16:20 8.5 33 34.4 382 0.0 2.2 7.8 344
22/11/2020 16:30 8.5 33 10.0 0 0.0 1.7 6.2 312
22/11/2020 16:40 8.5 31 0.0 0 0.0 1.5 5.5 344
22/11/2020 16:50 8.8 25 0.0 0 0.0 3.2 11.4 306
22/11/2020 17:00 8.4 29 0.0 0 0.0 3.3 11.7 310
22/11/2020 17:10 8.3 29 0.0 0 0.0 2.1 7.5 312
22/11/2020 17:20 8.5 30 0.0 0 0.0 1.3 4.6 317
22/11/2020 17:30 8.3 31 0.0 0 0.0 1.0 3.7 327
22/11/2020 17:40 8.2 31 0.0 0 0.0 1.1 4.0 312
22/11/2020 17:50 8.0 30 0.0 0 0.0 1.2 4.2 313
22/11/2020 18:00 8.1 27 0.0 0 0.0 1.9 6.9 318
22/11/2020 18:10 8.0 28 0.0 0 0.0 2.0 7.3 309
22/11/2020 18:20 8.4 28 0.0 0 0.0 3.5 12.7 317
22/11/2020 18:30 8.0 29 0.0 0 0.0 3.1 11.0 308
22/11/2020 18:40 7.4 31 0.0 0 0.0 3.2 11.4 304
22/11/2020 18:50 7.2 31 0.0 0 0.0 4.2 15.3 302
22/11/2020 19:00 7.0 31 0.0 0 0.0 4.0 14.4 307
22/11/2020 19:10 7.1 31 0.0 0 0.0 3.9 13.9 306
22/11/2020 19:20 6.8 33 0.0 0 0.0 4.6 16.4 308
22/11/2020 19:30 6.9 32 0.0 0 0.0 4.7 17.1 313
22/11/2020 19:40 6.8 32 0.0 0 0.0 4.5 16.3 309
22/11/2020 19:50 6.9 33 0.0 0 0.0 3.5 12.6 310
22/11/2020 20:00 6.7 32 0.0 0 0.0 3.0 10.7 306
22/11/2020 20:10 6.5 33 0.0 0 0.0 2.9 10.3 305
22/11/2020 20:20 6.5 34 0.0 0 0.0 1.8 6.5 304
22/11/2020 20:30 6.4 33 0.0 0 0.0 0.7 2.4 306
22/11/2020 20:40 7.1 31 0.0 0 0.0 1.3 4.6 308
22/11/2020 20:50 7.2 30 0.0 0 0.0 0.9 3.1 287
22/11/2020 21:00 7.3 28 0.0 0 0.0 2.2 7.9 298
22/11/2020 21:10 7.8 27 0.0 0 0.0 2.6 9.2 314
22/11/2020 21:20 7.5 28 0.0 0 0.0 2.2 8.1 311
22/11/2020 21:30 6.9 30 0.0 0 0.0 2.2 7.8 309
22/11/2020 21:40 6.6 32 0.0 0 0.0 2.0 7.2 310
22/11/2020 21:50 6.5 32 0.0 0 0.0 1.4 5.1 317
22/11/2020 22:00 6.6 32 0.0 0 0.0 0.9 3.3 330
22/11/2020 22:10 7.1 29 0.0 0 0.0 1.1 3.9 315
22/11/2020 22:20 7.3 27 0.0 0 0.0 1.1 4.1 311
22/11/2020 22:30 7.4 26 0.0 0 0.0 1.0 3.7 314
22/11/2020 22:40 7.0 28 0.0 0 0.0 0.5 1.9 327
22/11/2020 22:50 7.7 24 0.0 0 0.0 0.9 3.2 328
22/11/2020 23:00 7.7 25 0.0 0 0.0 1.6 5.7 332
22/11/2020 23:10 7.7 25 0.0 0 0.0 1.0 3.7 328
22/11/2020 23:20 7.3 26 0.0 0 0.0 1.0 3.7 323
22/11/2020 23:30 7.1 27 0.0 0 0.0 0.7 2.6 327
22/11/2020 23:40 7.2 27 0.0 0 0.0 1.7 6.1 307
22/11/2020 23:50 7.6 26 0.0 0 0.0 1.6 5.7 313
Anterior Página 1 de 1 Siguiente
Los datos de precipitación registrados en estaciones que están en cumbres son inferiores a lo real, como consecuencia del efecto del viento y de la nieve.


NOTA: Tipo de datos según el color:
   - Valores diarios o 10 minutos correctos
   - Valores diarios calculados a partir de un número de datos 10 minutos menor que 144 y mayor que 120, o de un número de datos semihorarios menor que 48 y mayor que 40 (caso de las estaciones de INTIA Y Ministerio)
   - Valores diez minutos estimados


Contacto        Enlaces        Aviso legal